Baileyville, IL (61007)

10:18 PM CST on February 23, 2017 (GMT -0600)
Fort Reilly | | Change Station

Elev 951 ft 42.12 °N, 89.58 °W | Updated 32 seconds ago

Overcast
Overcast
34.7 °F
Feels Like 29 °F
N
6.0
Wind Variable Wind from ENE

Today
High -- | Low -- °F
--% Chance of Precip.
Yesterday
High -- | Low -- °F
Precip. -- in
Pressure 29.73 in
Visibility 10.0 miles
Clouds Overcast 1000 ft
Windchill 29 °F
Dew Point 32 °F
Humidity 93%
Rainfall 0.07 in
Snow Depth Not available.
6:42 AM 5:41 PM
Waning Crescent, 7% visible
METAR KFEP 240415Z AUTO 04015G21KT 10SM OVC010 01/00 A2973 RMK AO2 LTG DSNT SW AND NW T00110004
Pressure 29.73 in
Visibility 10.0 miles
Clouds Overcast 1000 ft
Windchill 29 °F
Dew Point 32 °F
Humidity 93%
Rainfall 0.07 in
Snow Depth Not available.
6:42 AM 5:41 PM
Waning Crescent, 7% visible
METAR KFEP 240415Z AUTO 04015G21KT 10SM OVC010 01/00 A2973 RMK AO2 LTG DSNT SW AND NW T00110004

Get Your Daily Forecast Email!

Thanks for signing up!

Be on the lookout for a verification email in your inbox.

You'll start receiving the daily forecast at 8 AM.

×

10-Day Weather Forecast

Almanac

Astronomy

Feb. 23, 2017 Rise Set
Actual Time
Civil Twilight
Nautical Twilight
Astronomical Twilight
Moon
Length of Visible Light
Length of Day
Tomorrow will be .
, % of the Moon is Illuminated

Today's Extremes

State Highs State Lows

Community

WunderPhotos

Upload Photos

1,962,540 photos uploaded!

WunderBlog® & News

Nearby

Air Quality

  Air Quality AQ Index Pollutant
Not available.

Snow Depth

Station Depth Elevation

Earthquake Activity

City Distance Mag. Time & Date
Minimum magnitude displayed is 2.5.

Coastal Water Temperatures

Place Temperature

Stations

Nearby Weather Stations

Station Location Temp. Windchill Dew Point Humidity Wind Precip. Elev Updated Type
                   

Watches & Warnings

There are currently no watches in effect.